Time;durP1;ratioP1;P1;durP2;ratioP2;P2;SDS_P1;SDS_P2;PMS_P1;PMS_P2;Temp;Humidity;BMP_temperature;BMP_pressure;BME280_temperature;BME280_humidity;BME280_pressure;Samples;Min_cycle;Max_cycle;Signal;HPM_P1;HPM_P2
2023/08/22 00:03:07;;;;;;;5.70;3.70;;;27.90;61.70;;;;;;221961;1267;24161;-54
2023/08/22 00:08:10;;;;;;;4.00;3.50;;;27.90;61.70;;;;;;221773;1255;24202;-58
2023/08/22 00:13:14;;;;;;;4.20;3.90;;;27.80;61.60;;;;;;221647;1271;22527;-58
2023/08/22 00:18:17;;;;;;;5.10;3.80;;;27.90;61.90;;;;;;221943;1264;24246;-57
2023/08/22 00:23:21;;;;;;;4.20;3.90;;;27.80;61.70;;;;;;221874;1263;24351;-55
2023/08/22 00:28:24;;;;;;;4.60;3.70;;;27.80;61.70;;;;;;221724;1264;24247;-56
2023/08/22 00:33:28;;;;;;;5.10;3.80;;;27.80;61.60;;;;;;221891;1271;25342;-56
2023/08/22 00:38:31;;;;;;;4.30;3.00;;;27.80;61.60;;;;;;221939;1267;24219;-59
2023/08/22 00:43:36;;;;;;;7.60;4.90;;;27.80;61.60;;;;;;222004;1271;24206;-56
2023/08/22 00:48:40;;;;;;;4.00;3.70;;;27.80;61.60;;;;;;222075;1269;22517;-57
2023/08/22 00:53:44;;;;;;;3.80;3.50;;;27.70;61.60;;;;;;221925;1268;24326;-56
2023/08/22 00:58:48;;;;;;;4.80;3.80;;;27.80;61.60;;;;;;222086;1268;24210;-58
2023/08/22 01:03:51;;;;;;;7.50;3.50;;;27.80;61.60;;;;;;221763;1264;22524;-57
2023/08/22 01:09:08;;;;;;;4.20;3.60;;;27.70;61.60;;;;;;221844;1261;24271;-58
2023/08/22 01:14:16;;;;;;;5.30;3.90;;;27.70;61.60;;;;;;222063;1269;22535;-57
2023/08/22 01:19:20;;;;;;;3.50;3.20;;;27.70;61.90;;;;;;221807;1255;22640;-57
2023/08/22 01:24:23;;;;;;;3.60;3.30;;;27.70;61.60;;;;;;222044;1258;24232;-57
2023/08/22 01:29:32;;;;;;;4.80;3.50;;;27.70;61.70;;;;;;221904;1266;25280;-57
2023/08/22 01:34:39;;;;;;;3.40;3.00;;;27.70;61.80;;;;;;222021;1263;25332;-57
2023/08/22 01:39:45;;;;;;;3.70;3.40;;;27.70;61.70;;;;;;221905;1264;22576;-57
2023/08/22 01:44:48;;;;;;;3.60;3.10;;;27.70;61.70;;;;;;222041;1266;26504;-57
2023/08/22 01:49:51;;;;;;;4.20;3.90;;;27.70;61.70;;;;;;221970;1271;22601;-57
2023/08/22 01:54:57;;;;;;;6.70;3.40;;;27.60;61.60;;;;;;221851;1270;22527;-56
2023/08/22 02:00:00;;;;;;;4.90;3.60;;;27.60;61.70;;;;;;222018;1265;25342;-56
2023/08/22 02:05:14;;;;;;;6.10;3.40;;;27.70;61.80;;;;;;221891;1267;22586;-56
2023/08/22 02:10:18;;;;;;;3.40;3.10;;;27.60;61.90;;;;;;222256;1264;24336;-59
2023/08/22 02:15:22;;;;;;;8.50;3.80;;;27.60;61.90;;;;;;221911;1255;22548;-56
2023/08/22 02:20:25;;;;;;;3.80;3.50;;;27.50;62.30;;;;;;221808;1270;22523;-57
2023/08/22 02:25:29;;;;;;;4.00;3.70;;;27.60;62.10;;;;;;222108;1267;24203;-59
2023/08/22 02:30:34;;;;;;;5.10;3.50;;;27.60;62.10;;;;;;221855;1260;22639;-57
2023/08/22 02:35:38;;;;;;;3.50;3.10;;;27.50;61.90;;;;;;221929;1255;22636;-57
2023/08/22 02:40:41;;;;;;;5.10;3.20;;;27.50;62.10;;;;;;222166;1271;22531;-56
2023/08/22 02:45:49;;;;;;;3.70;3.40;;;27.50;61.80;;;;;;221818;1259;22525;-55
2023/08/22 02:50:52;;;;;;;6.90;3.40;;;27.50;61.70;;;;;;221970;1259;22654;-57
2023/08/22 02:55:57;;;;;;;5.40;4.00;;;27.50;61.70;;;;;;222093;1270;25302;-56
2023/08/22 03:01:00;;;;;;;4.70;3.70;;;27.40;61.60;;;;;;222014;1264;22646;-57
2023/08/22 03:06:05;;;;;;;5.20;3.20;;;27.50;62.10;;;;;;221827;1267;22545;-56
2023/08/22 03:11:08;;;;;;;4.70;3.30;;;27.50;61.70;;;;;;221938;1255;23911;-56
2023/08/22 03:16:11;;;;;;;4.10;3.20;;;27.40;61.70;;;;;;221687;1260;22648;-58
2023/08/22 03:21:17;;;;;;;5.40;3.60;;;27.40;61.80;;;;;;221851;1265;24750;-57
2023/08/22 03:26:20;;;;;;;4.60;3.40;;;27.40;61.70;;;;;;221645;1264;235733;-57
2023/08/22 03:31:26;;;;;;;5.10;3.50;;;27.40;62.20;;;;;;221953;1264;22520;-57
2023/08/22 03:36:29;;;;;;;5.50;3.60;;;27.40;61.80;;;;;;221929;1271;25428;-57
2023/08/22 03:41:32;;;;;;;5.50;4.30;;;27.30;61.80;;;;;;221912;1266;25214;-56
2023/08/22 03:46:37;;;;;;;7.30;3.70;;;27.30;61.80;;;;;;221634;1257;25572;-57
2023/08/22 03:51:53;;;;;;;4.50;4.10;;;27.40;61.80;;;;;;221898;1250;25439;-55
2023/08/22 03:56:56;;;;;;;6.00;4.30;;;27.30;61.90;;;;;;222037;1264;22534;-58
2023/08/22 04:02:01;;;;;;;5.70;4.30;;;27.30;61.80;;;;;;221796;1270;24221;-58
2023/08/22 04:07:04;;;;;;;5.20;4.40;;;27.30;61.80;;;;;;221783;1266;24205;-56
2023/08/22 04:12:08;;;;;;;4.70;4.40;;;27.20;61.80;;;;;;221925;1268;24203;-57
2023/08/22 04:17:11;;;;;;;6.40;4.70;;;27.30;61.80;;;;;;221867;1269;25574;-55
2023/08/22 04:22:14;;;;;;;5.30;4.90;;;27.20;61.80;;;;;;221690;1259;22536;-56
2023/08/22 04:27:19;;;;;;;5.70;4.50;;;27.30;61.80;;;;;;221874;1267;23940;-57
2023/08/22 04:32:23;;;;;;;4.90;4.40;;;27.30;61.80;;;;;;221836;1269;24223;-55
2023/08/22 04:37:27;;;;;;;6.10;5.50;;;27.20;61.80;;;;;;221854;1264;22535;-56
2023/08/22 04:42:31;;;;;;;5.00;4.50;;;27.30;62.20;;;;;;222005;1267;24401;-56
2023/08/22 04:47:40;;;;;;;5.30;4.90;;;27.30;61.80;;;;;;221807;1254;24354;-57
2023/08/22 04:52:45;;;;;;;5.50;5.00;;;27.20;61.70;;;;;;221632;1267;25567;-58
2023/08/22 04:57:48;;;;;;;5.20;4.50;;;27.20;61.70;;;;;;221719;1271;25237;-57
2023/08/22 05:02:53;;;;;;;5.30;4.90;;;27.20;61.80;;;;;;221673;1268;25294;-56
2023/08/22 05:07:56;;;;;;;7.20;4.50;;;27.20;61.70;;;;;;221866;1267;24354;-57
2023/08/22 05:12:59;;;;;;;5.40;4.90;;;27.30;61.70;;;;;;221705;1265;22676;-58
2023/08/22 05:18:03;;;;;;;4.80;4.40;;;27.30;61.80;;;;;;221911;1269;25216;-56
2023/08/22 05:23:07;;;;;;;4.90;4.50;;;27.30;61.70;;;;;;221882;1248;24249;-58
2023/08/22 05:28:10;;;;;;;4.60;4.20;;;27.30;61.80;;;;;;221897;1270;25498;-55
2023/08/22 05:33:13;;;;;;;5.00;4.60;;;27.30;61.70;;;;;;221963;1264;22522;-56
2023/08/22 05:38:16;;;;;;;5.30;4.80;;;27.30;61.70;;;;;;221574;1268;22631;-56
2023/08/22 05:43:19;;;;;;;5.30;4.70;;;27.30;61.60;;;;;;221705;1269;22521;-55
2023/08/22 05:48:22;;;;;;;5.10;4.70;;;27.30;61.70;;;;;;221699;1271;22533;-58
2023/08/22 05:53:25;;;;;;;5.80;4.70;;;27.30;61.80;;;;;;221880;1267;23885;-57
2023/08/22 05:58:28;;;;;;;5.10;4.70;;;27.30;61.90;;;;;;222034;1254;24264;-56
2023/08/22 06:03:31;;;;;;;5.60;5.00;;;27.20;61.80;;;;;;221781;1265;22539;-58
2023/08/22 06:08:34;;;;;;;5.90;4.40;;;27.30;61.80;;;;;;221711;1271;25695;-55
2023/08/22 06:13:37;;;;;;;4.90;4.50;;;27.30;62.10;;;;;;221994;1260;22525;-56
2023/08/22 06:18:41;;;;;;;5.20;4.70;;;27.30;62.10;;;;;;221930;1268;22523;-56
2023/08/22 06:23:44;;;;;;;5.50;5.00;;;27.30;62.10;;;;;;222095;1271;22601;-54
2023/08/22 06:28:47;;;;;;;6.20;5.00;;;27.20;62.10;;;;;;221778;1265;22520;-57
2023/08/22 06:33:50;;;;;;;5.40;4.90;;;27.20;62.10;;;;;;221852;1267;22976;-57
2023/08/22 06:38:53;;;;;;;6.70;5.10;;;27.30;62.10;;;;;;221948;1271;22521;-57
2023/08/22 06:43:56;;;;;;;5.80;5.10;;;27.30;62.00;;;;;;221890;1271;22521;-56
2023/08/22 06:48:59;;;;;;;7.10;5.40;;;27.20;62.20;;;;;;221577;1268;22554;-57
2023/08/22 06:54:02;;;;;;;6.30;5.10;;;27.30;62.20;;;;;;221673;1269;22654;-56
2023/08/22 06:59:05;;;;;;;6.10;5.20;;;27.40;61.50;;;;;;221766;1260;24201;-55
2023/08/22 07:04:08;;;;;;;5.40;4.90;;;27.40;62.10;;;;;;222166;1269;22547;-56
2023/08/22 07:09:19;;;;;;;5.30;4.90;;;27.50;62.00;;;;;;221916;1267;23937;-56
2023/08/22 07:14:22;;;;;;;5.50;5.10;;;27.50;61.80;;;;;;221506;1268;25367;-55
2023/08/22 07:19:24;;;;;;;5.10;4.60;;;27.50;62.80;;;;;;221722;1269;22627;-55
2023/08/22 07:24:42;;;;;;;5.70;5.30;;;27.50;62.30;;;;;;221817;1268;22657;-56
2023/08/22 07:29:45;;;;;;;5.30;4.90;;;27.50;62.40;;;;;;221800;1269;22884;-57
2023/08/22 07:34:48;;;;;;;5.20;4.70;;;27.50;62.50;;;;;;221967;1268;22655;-56
2023/08/22 07:39:51;;;;;;;6.20;5.20;;;27.60;62.50;;;;;;221415;1248;22645;-56
2023/08/22 07:44:54;;;;;;;4.90;4.50;;;27.70;62.60;;;;;;221424;1265;22575;-56
2023/08/22 07:49:57;;;;;;;5.90;5.40;;;27.70;62.60;;;;;;221551;1268;22667;-57
2023/08/22 07:55:00;;;;;;;5.80;5.10;;;27.80;62.20;;;;;;221701;1268;26539;-57
2023/08/22 08:00:08;;;;;;;5.00;4.60;;;27.70;62.20;;;;;;221686;1271;23977;-57
2023/08/22 08:05:14;;;;;;;6.10;4.90;;;27.70;62.30;;;;;;221635;1271;24246;-56
2023/08/22 08:10:17;;;;;;;5.90;5.30;;;27.70;62.30;;;;;;221186;1267;26566;-57
2023/08/22 08:15:20;;;;;;;6.10;5.40;;;27.80;62.50;;;;;;221528;1269;24212;-56
2023/08/22 08:20:23;;;;;;;6.30;4.90;;;27.80;62.10;;;;;;221469;1268;24698;-55
2023/08/22 08:25:25;;;;;;;5.50;5.00;;;27.80;62.30;;;;;;221689;1265;24243;-54
2023/08/22 08:30:28;;;;;;;5.20;4.80;;;27.90;62.20;;;;;;221551;1267;25476;-57
2023/08/22 08:35:31;;;;;;;5.50;5.10;;;27.90;61.90;;;;;;221574;1271;24227;-56
2023/08/22 08:40:35;;;;;;;5.30;4.90;;;27.90;62.10;;;;;;221522;1268;24253;-57
2023/08/22 08:45:39;;;;;;;5.60;5.20;;;28.00;61.90;;;;;;221454;1264;24121;-56
2023/08/22 08:50:44;;;;;;;5.40;4.90;;;28.10;61.90;;;;;;221766;1266;24245;-55
2023/08/22 08:55:47;;;;;;;5.10;4.70;;;28.10;62.00;;;;;;221581;1265;25466;-56
2023/08/22 09:00:52;;;;;;;5.80;5.30;;;28.20;61.80;;;;;;221739;1271;24266;-56
2023/08/22 09:05:55;;;;;;;5.50;5.10;;;28.30;61.80;;;;;;221807;1269;22511;-55
2023/08/22 09:10:57;;;;;;;6.50;6.00;;;28.30;61.60;;;;;;221739;1265;22647;-57
2023/08/22 09:16:01;;;;;;;5.40;5.00;;;28.30;62.00;;;;;;221696;1268;22536;-57
2023/08/22 09:21:04;;;;;;;5.60;5.00;;;28.30;61.80;;;;;;221764;1270;24186;-54
2023/08/22 09:26:07;;;;;;;5.90;5.40;;;28.30;61.90;;;;;;221637;1270;22638;-56
2023/08/22 09:31:21;;;;;;;6.20;4.60;;;28.30;62.10;;;;;;221631;1256;22561;-55
2023/08/22 09:36:24;;;;;;;4.50;4.20;;;28.60;62.50;;;;;;221810;1256;25291;-55
2023/08/22 09:41:29;;;;;;;5.00;4.60;;;28.70;61.70;;;;;;221646;1265;22645;-54
2023/08/22 09:46:39;;;;;;;5.60;5.10;;;28.70;61.40;;;;;;221612;1270;22524;-55
2023/08/22 09:51:47;;;;;;;5.40;5.00;;;28.60;61.40;;;;;;221896;1267;22769;-54
2023/08/22 09:56:50;;;;;;;5.90;5.50;;;28.70;61.00;;;;;;221905;1270;24091;-53
2023/08/22 10:01:54;;;;;;;6.10;5.50;;;28.70;60.30;;;;;;221882;1269;22520;-56
2023/08/22 10:06:58;;;;;;;6.50;5.20;;;28.60;60.40;;;;;;221905;1270;24219;-55
2023/08/22 10:12:08;;;;;;;6.10;5.50;;;28.60;60.10;;;;;;221596;1266;24210;-59
2023/08/22 10:17:13;;;;;;;5.80;5.20;;;28.60;60.30;;;;;;221837;1265;22852;-56
2023/08/22 10:22:16;;;;;;;8.20;6.20;;;28.60;60.60;;;;;;221889;1263;23890;-56
2023/08/22 10:27:20;;;;;;;6.90;6.20;;;28.60;60.70;;;;;;221896;1263;24412;-54
2023/08/22 10:32:24;;;;;;;5.70;5.10;;;28.70;60.60;;;;;;221873;1255;22524;-57
2023/08/22 10:37:30;;;;;;;5.50;5.10;;;28.70;59.90;;;;;;221844;1264;22513;-55
2023/08/22 10:42:32;;;;;;;6.40;5.80;;;28.70;59.70;;;;;;221896;1270;22538;-57
2023/08/22 10:47:35;;;;;;;6.10;5.60;;;28.80;59.60;;;;;;221881;1269;24069;-55
2023/08/22 10:52:39;;;;;;;6.10;5.60;;;28.90;58.70;;;;;;221851;1268;22661;-55
2023/08/22 10:57:46;;;;;;;5.60;5.10;;;29.00;58.60;;;;;;221733;1263;22685;-56
2023/08/22 11:02:58;;;;;;;5.60;5.10;;;29.10;58.30;;;;;;221898;1268;22521;-55
2023/08/22 11:08:05;;;;;;;7.40;5.80;;;29.20;58.60;;;;;;221797;1268;23579;-56
2023/08/22 11:13:08;;;;;;;6.20;5.20;;;29.20;58.30;;;;;;221644;1264;22642;-56
2023/08/22 11:18:12;;;;;;;5.50;5.20;;;29.20;57.60;;;;;;221828;1268;22598;-55
2023/08/22 11:23:15;;;;;;;5.80;5.30;;;29.20;57.80;;;;;;221693;1268;22547;-55
2023/08/22 11:28:29;;;;;;;7.70;5.60;;;29.30;57.80;;;;;;221597;1271;22519;-53
2023/08/22 11:33:38;;;;;;;5.60;5.00;;;29.40;57.40;;;;;;221979;1265;26750;-56
2023/08/22 11:38:42;;;;;;;6.10;5.70;;;29.40;57.30;;;;;;221720;1268;22529;-56
2023/08/22 11:43:46;;;;;;;6.40;5.30;;;29.50;57.10;;;;;;221727;1270;24348;-52
2023/08/22 11:48:50;;;;;;;6.50;5.90;;;29.50;57.10;;;;;;221887;1265;25434;-55
2023/08/22 11:53:54;;;;;;;6.70;5.60;;;29.60;56.90;;;;;;221708;1265;22596;-56
2023/08/22 11:58:59;;;;;;;5.90;5.30;;;29.60;57.80;;;;;;221827;1271;25583;-55
2023/08/22 12:04:07;;;;;;;6.20;5.70;;;29.60;57.20;;;;;;221801;1271;22592;-55
2023/08/22 12:09:12;;;;;;;5.40;5.00;;;29.70;56.90;;;;;;221805;1265;24233;-55
2023/08/22 12:14:20;;;;;;;8.30;5.60;;;29.70;57.00;;;;;;221763;1271;22527;-56
2023/08/22 12:19:22;;;;;;;6.80;5.60;;;29.80;57.80;;;;;;221608;1269;22525;-53
2023/08/22 12:24:26;;;;;;;5.70;5.10;;;29.80;57.50;;;;;;221969;1264;22571;-55
2023/08/22 12:29:28;;;;;;;8.40;5.30;;;29.80;57.60;;;;;;221928;1255;24222;-55
2023/08/22 12:34:33;;;;;;;6.80;5.10;;;29.90;57.60;;;;;;221993;1270;22944;-60
2023/08/22 12:39:36;;;;;;;9.30;5.70;;;29.80;57.10;;;;;;221917;1265;22543;-55
2023/08/22 12:44:39;;;;;;;6.80;5.60;;;29.80;57.00;;;;;;221913;1264;22525;-56
2023/08/22 12:49:41;;;;;;;8.60;5.90;;;30.00;57.50;;;;;;221796;1271;22558;-55
2023/08/22 12:54:44;;;;;;;6.30;5.00;;;30.00;56.70;;;;;;221498;1267;22514;-54
2023/08/22 12:59:47;;;;;;;10.40;6.10;;;29.90;56.70;;;;;;221758;1271;25366;-56
2023/08/22 13:04:50;;;;;;;5.80;5.10;;;30.00;56.30;;;;;;221779;1268;24246;-55
2023/08/22 13:09:53;;;;;;;6.40;5.30;;;30.10;55.80;;;;;;221810;1271;25529;-56
2023/08/22 13:14:56;;;;;;;9.50;6.10;;;30.20;56.10;;;;;;221900;1270;22541;-56
2023/08/22 13:19:59;;;;;;;6.00;5.40;;;30.00;56.50;;;;;;221746;1271;23499;-56
2023/08/22 13:25:03;;;;;;;5.80;5.30;;;30.00;57.00;;;;;;221685;1264;24237;-56
2023/08/22 13:30:07;;;;;;;6.00;5.50;;;30.00;57.30;;;;;;221974;1270;22533;-58
2023/08/22 13:35:14;;;;;;;5.70;5.20;;;30.00;58.00;;;;;;221975;1269;25687;-56
2023/08/22 13:40:17;;;;;;;6.20;5.60;;;30.00;58.00;;;;;;221689;1268;23103;-56
2023/08/22 13:45:20;;;;;;;4.90;4.60;;;29.90;58.00;;;;;;221657;1271;23903;-57
2023/08/22 13:50:23;;;;;;;5.90;5.50;;;29.90;58.20;;;;;;221664;1270;22529;-57
2023/08/22 13:55:27;;;;;;;5.50;5.10;;;29.90;58.60;;;;;;222089;1271;22681;-57
2023/08/22 14:00:31;;;;;;;6.00;5.60;;;29.90;58.40;;;;;;221675;1265;24234;-56
2023/08/22 14:05:34;;;;;;;6.20;5.80;;;29.90;58.50;;;;;;221933;1268;22536;-56
2023/08/22 14:10:37;;;;;;;6.50;5.30;;;29.90;58.80;;;;;;221739;1265;22694;-56
2023/08/22 14:15:40;;;;;;;6.00;5.40;;;29.90;58.60;;;;;;221931;1271;22540;-57
2023/08/22 14:20:43;;;;;;;6.20;5.70;;;29.90;58.80;;;;;;221662;1270;25091;-58
2023/08/22 14:25:46;;;;;;;5.80;5.40;;;29.90;59.00;;;;;;221910;1268;22558;-55
2023/08/22 14:30:49;;;;;;;5.50;5.10;;;29.80;59.30;;;;;;221909;1265;22665;-56
2023/08/22 14:35:52;;;;;;;4.80;4.50;;;29.80;58.80;;;;;;221656;1268;22714;-54
2023/08/22 14:40:56;;;;;;;5.50;5.10;;;29.80;59.10;;;;;;221798;1268;25089;-57
2023/08/22 14:46:00;;;;;;;5.10;4.80;;;29.60;59.40;;;;;;222020;1264;22688;-57
2023/08/22 14:51:03;;;;;;;5.70;5.20;;;29.60;59.70;;;;;;221917;1269;22660;-55
2023/08/22 14:56:06;;;;;;;5.50;5.20;;;29.60;59.90;;;;;;221879;1263;25525;-57
2023/08/22 15:01:10;;;;;;;5.40;5.00;;;29.60;60.10;;;;;;221940;1263;22527;-58
2023/08/22 15:06:13;;;;;;;5.90;5.40;;;29.50;60.20;;;;;;221835;1267;24201;-57
2023/08/22 15:11:18;;;;;;;5.50;5.10;;;29.50;60.20;;;;;;221749;1268;22534;-57
2023/08/22 15:16:21;;;;;;;5.20;4.70;;;29.50;60.10;;;;;;221606;1267;22624;-59
2023/08/22 15:21:24;;;;;;;5.70;5.30;;;29.70;59.40;;;;;;221763;1271;22757;-56
2023/08/22 15:26:26;;;;;;;6.20;5.50;;;29.60;59.30;;;;;;221749;1271;165315;-58
2023/08/22 15:31:29;;;;;;;6.20;5.70;;;29.60;59.20;;;;;;221822;1269;22530;-57
2023/08/22 15:36:32;;;;;;;5.90;5.40;;;29.60;59.70;;;;;;221781;1271;22608;-58
2023/08/22 15:41:36;;;;;;;6.90;6.30;;;29.40;62.20;;;;;;221741;1265;22525;-57
2023/08/22 15:46:39;;;;;;;7.00;6.20;;;29.40;62.30;;;;;;222036;1268;25488;-56
2023/08/22 15:51:42;;;;;;;7.90;6.40;;;29.40;63.50;;;;;;222000;1271;22521;-58
2023/08/22 15:56:45;;;;;;;7.30;6.60;;;29.30;64.70;;;;;;221755;1269;25536;-57
2023/08/22 16:01:48;;;;;;;8.00;6.30;;;29.40;65.10;;;;;;221993;1271;23244;-56
2023/08/22 16:06:51;;;;;;;6.90;6.30;;;29.40;66.00;;;;;;221494;1267;22808;-57
2023/08/22 16:11:54;;;;;;;11.60;10.20;;;29.50;66.40;;;;;;221204;1271;22581;-56
2023/08/22 16:16:57;;;;;;;10.50;7.70;;;29.50;66.90;;;;;;221508;1271;24202;-55
2023/08/22 16:22:00;;;;;;;8.40;6.90;;;29.40;66.40;;;;;;221772;1271;24185;-57
2023/08/22 16:27:03;;;;;;;7.40;6.80;;;29.40;66.20;;;;;;222033;1266;22524;-57
2023/08/22 16:32:06;;;;;;;7.30;6.10;;;29.40;66.40;;;;;;221553;1271;24286;-56
2023/08/22 16:37:12;;;;;;;8.50;6.40;;;29.40;66.00;;;;;;221676;1254;23930;-57
2023/08/22 16:42:15;;;;;;;6.80;6.00;;;29.20;66.50;;;;;;222035;1265;22609;-56
2023/08/22 16:47:18;;;;;;;13.40;7.00;;;28.90;66.80;;;;;;221869;1271;22531;-57
2023/08/22 16:52:21;;;;;;;8.10;7.00;;;28.70;67.40;;;;;;221604;1271;23021;-58
2023/08/22 16:57:24;;;;;;;6.90;6.20;;;28.60;67.70;;;;;;221603;1271;22595;-56
2023/08/22 17:02:27;;;;;;;7.40;6.20;;;28.50;67.70;;;;;;221736;1271;22698;-56
2023/08/22 17:07:31;;;;;;;9.70;6.70;;;28.40;67.70;;;;;;221717;1261;24223;-57
2023/08/22 17:12:34;;;;;;;7.10;6.50;;;28.50;67.70;;;;;;221881;1270;22543;-56
2023/08/22 17:17:37;;;;;;;7.30;6.60;;;28.50;67.50;;;;;;221782;1268;22561;-59
2023/08/22 17:22:41;;;;;;;9.00;6.80;;;28.70;67.10;;;;;;222083;1264;22658;-56
2023/08/22 17:27:44;;;;;;;13.30;7.10;;;28.70;66.70;;;;;;221990;1270;22540;-59
2023/08/22 17:32:47;;;;;;;8.00;6.60;;;28.70;67.00;;;;;;221809;1267;22693;-58
2023/08/22 17:37:51;;;;;;;6.80;6.20;;;28.60;66.90;;;;;;221792;1270;22549;-56
2023/08/22 17:42:55;;;;;;;8.00;7.20;;;28.60;66.80;;;;;;222157;1264;24210;-57
2023/08/22 17:47:58;;;;;;;7.20;6.30;;;28.30;67.10;;;;;;221840;1264;24256;-57
2023/08/22 17:53:01;;;;;;;6.50;5.90;;;28.20;67.10;;;;;;222135;1267;22570;-57
2023/08/22 17:58:06;;;;;;;7.50;6.30;;;28.30;67.10;;;;;;221767;1264;22545;-57
2023/08/22 18:03:09;;;;;;;7.40;5.80;;;28.30;66.30;;;;;;221986;1261;22544;-58
2023/08/22 18:08:12;;;;;;;6.10;5.60;;;28.40;66.60;;;;;;221873;1248;22650;-57
2023/08/22 18:13:16;;;;;;;6.80;6.20;;;28.50;66.20;;;;;;221975;1270;25265;-53
2023/08/22 18:18:20;;;;;;;6.70;6.00;;;28.50;65.80;;;;;;221966;1269;22568;-57
2023/08/22 18:23:24;;;;;;;5.90;5.40;;;28.60;66.10;;;;;;222361;1257;25408;-57
2023/08/22 18:28:28;;;;;;;6.40;5.90;;;28.60;65.60;;;;;;222130;1271;24213;-58
2023/08/22 18:33:35;;;;;;;7.80;6.20;;;28.60;65.60;;;;;;222078;1271;24336;-56
2023/08/22 18:38:40;;;;;;;6.70;6.00;;;28.50;65.60;;;;;;222045;1257;24244;-56
2023/08/22 18:43:47;;;;;;;6.20;5.80;;;28.30;66.30;;;;;;222074;1268;22605;-58
2023/08/22 18:48:51;;;;;;;6.40;5.80;;;28.20;66.60;;;;;;222073;1257;22934;-57
2023/08/22 18:53:54;;;;;;;7.30;6.60;;;28.20;66.80;;;;;;221796;1270;22897;-55
2023/08/22 18:59:00;;;;;;;6.30;5.70;;;28.20;66.80;;;;;;222007;1266;22538;-58
2023/08/22 19:04:04;;;;;;;7.90;6.30;;;28.20;66.90;;;;;;222010;1249;24209;-58
2023/08/22 19:09:08;;;;;;;6.60;6.10;;;28.10;67.20;;;;;;221981;1264;24245;-60
2023/08/22 19:14:12;;;;;;;6.70;6.10;;;28.20;66.80;;;;;;222181;1269;24178;-57
2023/08/22 19:19:16;;;;;;;8.00;6.00;;;28.30;66.90;;;;;;222206;1264;22683;-58
2023/08/22 19:24:20;;;;;;;6.20;5.70;;;28.30;66.60;;;;;;222136;1268;22952;-57
2023/08/22 19:29:26;;;;;;;6.90;6.30;;;28.30;67.10;;;;;;222121;1268;22528;-57
2023/08/22 19:34:31;;;;;;;7.80;6.70;;;28.30;67.20;;;;;;222302;1264;22452;-57
2023/08/22 19:39:35;;;;;;;6.60;6.00;;;28.10;67.30;;;;;;223967;1270;25293;-54
2023/08/22 19:44:40;;;;;;;7.10;6.50;;;28.10;67.60;;;;;;224250;1264;22633;-56
2023/08/22 19:49:44;;;;;;;6.90;6.40;;;28.20;67.30;;;;;;224121;1258;22587;-52
2023/08/22 19:54:49;;;;;;;7.40;6.50;;;28.30;66.70;;;;;;224500;1271;22485;-55
2023/08/22 19:59:53;;;;;;;6.80;6.30;;;28.40;66.60;;;;;;226031;1271;22859;-55
2023/08/22 20:05:02;;;;;;;6.90;6.40;;;28.50;66.30;;;;;;223039;1267;22632;-58
2023/08/22 20:10:07;;;;;;;8.80;6.70;;;28.30;66.40;;;;;;221974;1267;22806;-58
2023/08/22 20:15:11;;;;;;;6.90;6.30;;;28.10;66.60;;;;;;221978;1268;23030;-56
2023/08/22 20:20:14;;;;;;;7.70;6.20;;;27.90;67.60;;;;;;221858;1260;25633;-56
2023/08/22 20:25:17;;;;;;;6.80;6.20;;;27.80;67.80;;;;;;222058;1267;26219;-58
2023/08/22 20:30:20;;;;;;;7.20;6.00;;;27.80;67.90;;;;;;221625;1263;22538;-57
2023/08/22 20:35:23;;;;;;;8.70;6.20;;;27.90;68.30;;;;;;221804;1260;22520;-57
2023/08/22 20:40:26;;;;;;;6.20;5.80;;;27.80;68.20;;;;;;221553;1270;23694;-58
2023/08/22 20:45:30;;;;;;;5.60;5.10;;;27.70;68.50;;;;;;221669;1255;22534;-55
2023/08/22 20:50:33;;;;;;;5.90;4.70;;;27.60;68.30;;;;;;221959;1255;24302;-57
2023/08/22 20:55:38;;;;;;;5.80;5.20;;;27.60;68.00;;;;;;222149;1271;24332;-58
2023/08/22 21:00:42;;;;;;;7.50;5.80;;;27.60;67.70;;;;;;222014;1267;24720;-57
2023/08/22 21:05:45;;;;;;;6.00;4.90;;;27.50;67.60;;;;;;221923;1260;24236;-58
2023/08/22 21:10:48;;;;;;;5.50;4.50;;;27.50;67.50;;;;;;222147;1270;22515;-58
2023/08/22 21:15:52;;;;;;;8.60;5.00;;;27.50;67.10;;;;;;221910;1271;25239;-58
2023/08/22 21:20:55;;;;;;;7.10;4.80;;;27.50;67.00;;;;;;221871;1264;23451;-58
2023/08/22 21:25:58;;;;;;;7.40;4.10;;;27.40;67.30;;;;;;222181;1257;25420;-57
2023/08/22 21:31:02;;;;;;;7.90;4.00;;;27.30;66.80;;;;;;221981;1271;22532;-57
2023/08/22 21:36:12;;;;;;;7.70;4.20;;;27.20;66.20;;;;;;221941;1256;23395;-57
2023/08/22 21:41:15;;;;;;;8.70;3.90;;;27.10;65.00;;;;;;222052;1271;24247;-57
2023/08/22 21:46:17;;;;;;;4.80;3.30;;;27.00;64.50;;;;;;222168;1263;22536;-58
2023/08/22 21:51:21;;;;;;;5.30;4.00;;;27.10;64.00;;;;;;221700;1267;22590;-57
2023/08/22 21:56:23;;;;;;;7.20;3.00;;;27.20;63.70;;;;;;221706;1270;22534;-57
2023/08/22 22:01:27;;;;;;;8.50;3.40;;;27.30;63.40;;;;;;222020;1264;22536;-56
2023/08/22 22:06:29;;;;;;;8.00;3.60;;;27.10;63.30;;;;;;221922;1263;23020;-58
2023/08/22 22:11:33;;;;;;;4.30;2.80;;;27.10;63.20;;;;;;221757;1255;22545;-58
2023/08/22 22:16:36;;;;;;;4.40;3.50;;;27.20;62.90;;;;;;221835;1264;22544;-58
